createdAt,value
2023-01-25T00:03:32.521Z,102387.44
2023-01-25T00:08:33.827Z,102427.38
2023-01-25T00:13:34.993Z,102429.50
2023-01-25T00:18:36.237Z,102435.31
2023-01-25T00:23:37.438Z,102422.53
2023-01-25T00:28:38.644Z,102425.31
2023-01-25T00:33:40.026Z,102416.91
2023-01-25T00:38:41.236Z,102411.13
2023-01-25T00:43:42.473Z,102405.84
2023-01-25T00:48:43.723Z,102404.06
2023-01-25T00:53:44.950Z,102396.09
2023-01-25T00:58:46.160Z,102395.91
2023-01-25T01:03:47.398Z,102381.72
2023-01-25T01:08:48.677Z,102380.91
2023-01-25T01:13:52.779Z,102390.31
2023-01-25T01:18:54.014Z,102381.00
2023-01-25T01:23:55.239Z,102381.53
2023-01-25T01:28:56.505Z,102381.72
2023-01-25T01:33:58.422Z,102385.56
2023-01-25T01:38:59.939Z,102381.63
2023-01-25T01:44:01.154Z,102381.28
2023-01-25T01:49:02.387Z,102384.22
2023-01-25T01:54:03.665Z,102380.91
2023-01-25T01:59:07.138Z,102389.13
2023-01-25T02:04:08.354Z,102381.38
2023-01-25T02:09:09.575Z,102385.94
2023-01-25T02:14:10.792Z,102378.06
2023-01-25T02:19:13.527Z,102381.19
2023-01-25T02:24:14.717Z,102376.56
2023-01-25T02:29:15.911Z,102371.91
2023-01-25T02:34:17.118Z,102367.25
2023-01-25T02:39:20.321Z,102363.25
2023-01-25T02:44:21.757Z,102362.00
2023-01-25T02:49:23.002Z,102353.97
2023-01-25T02:54:26.157Z,102348.78
2023-01-25T02:59:27.386Z,102351.81
2023-01-25T03:04:31.201Z,102358.22
2023-01-25T03:09:32.405Z,102351.47
2023-01-25T03:14:33.591Z,102349.50
2023-01-25T03:19:34.799Z,102350.94
2023-01-25T03:24:36.097Z,102348.25
2023-01-25T03:29:37.557Z,102352.00
2023-01-25T03:34:38.867Z,102357.59
2023-01-25T03:39:40.108Z,102361.47
2023-01-25T03:44:41.352Z,102348.25
2023-01-25T03:49:42.559Z,102339.13
2023-01-25T03:54:43.866Z,102339.41
2023-01-25T03:59:45.063Z,102335.41
2023-01-25T04:04:46.272Z,102324.78
2023-01-25T04:09:51.775Z,102331.81
2023-01-25T04:14:52.968Z,102310.84
2023-01-25T04:19:54.220Z,102299.69
2023-01-25T04:24:55.437Z,102303.06
2023-01-25T04:29:58.809Z,102291.56
2023-01-25T04:35:00.037Z,102289.78
2023-01-25T04:40:01.264Z,102281.66
2023-01-25T04:45:02.437Z,102284.25
2023-01-25T04:50:05.367Z,102280.88
2023-01-25T04:55:07.952Z,102281.22
2023-01-25T05:00:09.332Z,102274.06
2023-01-25T05:05:10.997Z,102276.22
2023-01-25T05:10:12.328Z,102269.19
2023-01-25T05:15:13.570Z,102269.19
2023-01-25T05:20:14.841Z,102265.34
2023-01-25T05:25:34.708Z,102260.97
2023-01-25T05:30:36.019Z,102256.44
2023-01-25T05:35:37.236Z,102261.59
2023-01-25T05:40:38.436Z,102253.66
2023-01-25T05:45:40.315Z,102255.06
2023-01-25T05:50:41.555Z,102248.66
2023-01-25T05:55:42.741Z,102241.25
2023-01-25T06:00:43.972Z,102248.75
2023-01-25T06:05:45.208Z,102247.59
2023-01-25T06:10:46.405Z,102248.66
2023-01-25T06:15:47.679Z,102243.31
2023-01-25T06:20:48.928Z,102241.88
2023-01-25T06:25:50.166Z,102235.56
2023-01-25T06:30:51.379Z,102234.91
2023-01-25T06:35:52.565Z,102231.63
2023-01-25T06:40:53.767Z,102232.78
2023-01-25T06:45:54.960Z,102242.31
2023-01-25T06:50:58.469Z,102244.28
2023-01-25T06:55:59.700Z,102242.69
2023-01-25T07:01:01.312Z,102244.28
2023-01-25T07:06:02.673Z,102237.69
2023-01-25T07:11:03.896Z,102245.47
2023-01-25T07:16:05.135Z,102246.97
2023-01-25T07:21:06.390Z,102250.53
2023-01-25T07:26:07.657Z,102248.66
2023-01-25T07:31:08.861Z,102252.13
2023-01-25T07:36:10.113Z,102240.19
2023-01-25T07:41:11.327Z,102236.88
2023-01-25T07:46:12.575Z,102234.28
2023-01-25T07:51:22.784Z,102239.72
2023-01-25T07:56:24.473Z,102238.75
2023-01-25T08:01:25.810Z,102229.94
2023-01-25T08:06:30.644Z,102219.41
2023-01-25T08:11:35.142Z,102226.00
2023-01-25T08:16:36.304Z,102227.16
2023-01-25T08:21:37.811Z,102236.06
2023-01-25T08:26:39.097Z,102242.31
2023-01-25T08:31:40.305Z,102232.25
2023-01-25T08:36:41.543Z,102225.72
2023-01-25T08:41:42.799Z,102235.53
2023-01-25T08:46:45.672Z,102222.78
2023-01-25T08:51:48.125Z,102220.91
2023-01-25T08:56:49.446Z,102214.25
2023-01-25T09:01:50.675Z,102211.19
2023-01-25T09:06:54.502Z,102213.50
2023-01-25T09:11:55.723Z,102207.72
2023-01-25T09:16:56.934Z,102211.91
2023-01-25T09:21:58.195Z,102206.09
2023-01-25T09:27:00.277Z,102204.16
2023-01-25T09:32:01.652Z,102199.00
2023-01-25T09:37:02.915Z,102187.03
2023-01-25T09:42:13.970Z,102179.34
2023-01-25T09:47:17.761Z,102181.94
2023-01-25T09:52:28.200Z,102171.03
2023-01-25T09:57:29.412Z,102167.19
2023-01-25T10:02:30.735Z,102172.63
2023-01-25T10:07:32.008Z,102168.56
2023-01-25T10:12:33.210Z,102160.72
2023-01-25T10:17:34.361Z,102163.66
2023-01-25T10:22:35.598Z,102144.41
2023-01-25T10:27:36.813Z,102140.63
2023-01-25T10:32:47.624Z,102137.84
2023-01-25T10:37:52.496Z,102132.50
2023-01-25T10:42:53.726Z,102117.63
2023-01-25T10:47:54.915Z,102126.31
2023-01-25T10:52:56.132Z,102118.56
2023-01-25T10:57:57.847Z,102106.59
2023-01-25T11:02:59.136Z,102103.50
2023-01-25T11:08:00.408Z,102099.09
2023-01-25T11:13:01.606Z,102086.69
2023-01-25T11:18:02.849Z,102083.66
2023-01-25T11:23:04.084Z,102085.16
2023-01-25T11:28:07.040Z,102078.53
2023-01-25T11:33:08.225Z,102064.09
2023-01-25T11:38:09.472Z,102051.09
2023-01-25T11:43:10.638Z,102033.03
2023-01-25T11:48:11.801Z,102029.00
2023-01-25T11:53:17.732Z,102014.13
2023-01-25T11:58:18.909Z,102001.00
2023-01-25T12:03:20.111Z,101990.28
2023-01-25T12:08:26.859Z,101981.16
2023-01-25T12:13:28.059Z,101971.78
2023-01-25T12:18:29.346Z,101958.84
2023-01-25T12:23:30.499Z,101948.91
2023-01-25T12:28:31.738Z,101934.72
2023-01-25T12:33:33.864Z,101920.03
2023-01-25T12:38:35.290Z,101907.31
2023-01-25T12:43:38.694Z,101888.81
2023-01-25T12:48:41.182Z,101892.75
2023-01-25T12:53:42.385Z,101878.38
2023-01-25T12:58:43.611Z,101867.88
2023-01-25T13:03:47.173Z,101869.22
2023-01-25T13:08:49.100Z,101849.91
2023-01-25T13:13:50.581Z,101841.91
2023-01-25T13:18:51.819Z,101822.56
2023-01-25T13:23:54.312Z,101811.25
2023-01-25T13:28:55.583Z,101802.69
2023-01-25T13:33:57.486Z,101801.53
2023-01-25T13:38:58.650Z,101789.38
2023-01-25T13:43:59.842Z,101785.19
2023-01-25T13:49:01.093Z,101780.25
2023-01-25T13:54:02.301Z,101779.44
2023-01-25T13:59:06.181Z,101778.44
2023-01-25T14:04:08.897Z,101782.03
2023-01-25T14:09:10.251Z,101768.72
2023-01-25T14:14:11.444Z,101767.72
2023-01-25T14:19:17.446Z,101764.13
2023-01-25T14:24:21.453Z,101763.13
2023-01-25T14:29:32.785Z,101758.56
2023-01-25T14:34:34.256Z,101747.66
2023-01-25T14:39:35.596Z,101736.06
2023-01-25T14:44:36.832Z,101740.66
2023-01-25T14:49:38.112Z,101741.88
2023-01-25T14:54:40.155Z,101741.06
2023-01-25T14:59:41.388Z,101735.09
2023-01-25T15:04:42.591Z,101730.69
2023-01-25T15:09:43.808Z,101726.72
2023-01-25T15:14:49.429Z,101721.09
2023-01-25T15:19:50.683Z,101714.47
2023-01-25T15:24:58.293Z,101714.25
2023-01-25T15:30:00.288Z,101710.69
2023-01-25T15:35:03.571Z,101703.34
2023-01-25T15:40:04.753Z,101683.00
2023-01-25T15:45:06.876Z,101669.31
2023-01-25T15:50:08.447Z,101678.47
2023-01-25T15:55:09.812Z,101668.94
2023-01-25T16:00:11.400Z,101661.97
2023-01-25T16:05:12.864Z,101662.59
2023-01-25T16:10:14.101Z,101665.53
2023-01-25T16:15:15.456Z,101657.00
2023-01-25T16:20:16.875Z,101650.25
2023-01-25T16:25:18.122Z,101659.81
2023-01-25T16:30:19.397Z,101659.41
2023-01-25T16:35:22.713Z,101648.78
2023-01-25T16:40:24.507Z,101647.16
2023-01-25T16:45:25.965Z,101657.28
2023-01-25T16:50:27.162Z,101643.91
2023-01-25T16:55:28.368Z,101642.63
2023-01-25T17:00:29.577Z,101642.16
2023-01-25T17:05:33.116Z,101636.59
2023-01-25T17:10:35.821Z,101629.69
2023-01-25T17:15:37.136Z,101633.84
2023-01-25T17:20:39.215Z,101630.06
2023-01-25T17:25:40.717Z,101622.16
2023-01-25T17:30:44.101Z,101631.44
2023-01-25T17:35:45.418Z,101632.97
2023-01-25T17:40:46.724Z,101627.00
2023-01-25T17:45:47.994Z,101608.75
2023-01-25T17:50:49.235Z,101607.34
2023-01-25T17:55:57.473Z,101611.09
2023-01-25T18:01:12.603Z,101605.69
2023-01-25T18:06:14.802Z,101600.75
2023-01-25T18:11:16.399Z,101601.34
2023-01-25T18:16:17.732Z,101602.72
2023-01-25T18:21:24.233Z,101598.13
2023-01-25T18:26:25.470Z,101594.69
2023-01-25T18:31:26.966Z,101598.31
2023-01-25T18:36:28.222Z,101598.25
2023-01-25T18:41:31.783Z,101587.50
2023-01-25T18:46:33.466Z,101587.88
2023-01-25T18:51:38.956Z,101584.56
2023-01-25T18:56:46.726Z,101567.88
2023-01-25T19:01:48.112Z,101568.22
2023-01-25T19:06:55.683Z,101563.22
2023-01-25T19:11:57.074Z,101554.44
2023-01-25T19:16:58.507Z,101548.09
2023-01-25T19:21:59.811Z,101541.28
2023-01-25T19:27:01.175Z,101526.72
2023-01-25T19:32:02.544Z,101512.63
2023-01-25T19:37:03.813Z,101515.59
2023-01-25T19:42:07.620Z,101507.84
2023-01-25T19:47:08.861Z,101492.75
2023-01-25T19:52:12.648Z,101480.69
2023-01-25T19:57:14.647Z,101473.34
2023-01-25T20:02:15.949Z,101458.59
2023-01-25T20:07:17.201Z,101457.44
2023-01-25T20:12:20.746Z,101442.38
2023-01-25T20:17:22.152Z,101435.78
2023-01-25T20:22:26.294Z,101438.19
2023-01-25T20:27:27.558Z,101442.41
2023-01-25T20:32:32.990Z,101433.78
2023-01-25T20:37:34.461Z,101438.91
2023-01-25T20:42:35.694Z,101429.94
2023-01-25T20:47:36.922Z,101434.53
2023-01-25T20:52:38.190Z,101431.16
2023-01-25T20:57:39.385Z,101434.28
2023-01-25T21:02:40.591Z,101429.38
2023-01-25T21:07:42.127Z,101427.00
2023-01-25T21:12:43.367Z,101424.41
2023-01-25T21:17:44.629Z,101407.88
2023-01-25T21:22:45.969Z,101404.84
2023-01-25T21:27:49.080Z,101396.88
2023-01-25T21:32:50.479Z,101391.19
2023-01-25T21:37:51.884Z,101381.44
2023-01-25T21:42:53.060Z,101381.78
2023-01-25T21:47:54.234Z,101385.00
2023-01-25T21:52:55.466Z,101395.63
2023-01-25T21:57:58.359Z,101398.38
2023-01-25T22:02:59.611Z,101394.41
2023-01-25T22:08:00.857Z,101389.81
2023-01-25T22:13:02.064Z,101398.75
2023-01-25T22:18:03.279Z,101398.81
2023-01-25T22:23:04.539Z,101400.13
2023-01-25T22:28:07.359Z,101402.53
2023-01-25T22:33:08.558Z,101410.81
2023-01-25T22:38:09.717Z,101394.81
2023-01-25T22:43:10.970Z,101399.56
2023-01-25T22:48:12.140Z,101403.50
2023-01-25T22:53:13.391Z,101391.56
2023-01-25T22:58:14.597Z,101386.50
2023-01-25T23:03:15.815Z,101385.91
2023-01-25T23:08:17.112Z,101383.38
2023-01-25T23:13:18.306Z,101382.81
2023-01-25T23:18:38.388Z,101380.72
2023-01-25T23:23:39.576Z,101376.53
2023-01-25T23:28:43.101Z,101370.81
2023-01-25T23:33:44.392Z,101366.44
2023-01-25T23:38:46.196Z,101357.69
2023-01-25T23:43:47.741Z,101361.97
2023-01-25T23:48:48.932Z,101355.44
2023-01-25T23:53:50.142Z,101342.53
2023-01-25T23:58:52.570Z,101337.28
